sensor_id;sensor_type;location;lat;lon;timestamp;pressure;altitude;pressure_sealevel;temperature;humidity
53960;BME280;39866;48.638;-2.020;2024-03-08T00:02:20;100400.09;;;13.93;100.00
53960;BME280;39866;48.638;-2.020;2024-03-08T00:04:45;100402.53;;;13.97;100.00
53960;BME280;39866;48.638;-2.020;2024-03-08T00:07:11;100397.47;;;14.10;100.00
53960;BME280;39866;48.638;-2.020;2024-03-08T00:09:36;100399.88;;;13.97;100.00
53960;BME280;39866;48.638;-2.020;2024-03-08T00:12:01;100389.88;;;14.01;100.00
53960;BME280;39866;48.638;-2.020;2024-03-08T00:14:27;100389.78;;;14.02;100.00
53960;BME280;39866;48.638;-2.020;2024-03-08T00:16:52;100381.69;;;14.04;100.00
53960;BME280;39866;48.638;-2.020;2024-03-08T00:19:19;100382.84;;;13.98;100.00
53960;BME280;39866;48.638;-2.020;2024-03-08T00:21:44;100376.69;;;14.15;100.00
53960;BME280;39866;48.638;-2.020;2024-03-08T00:24:10;100372.28;;;14.14;100.00
53960;BME280;39866;48.638;-2.020;2024-03-08T00:26:35;100376.63;;;13.98;100.00
53960;BME280;39866;48.638;-2.020;2024-03-08T00:29:01;100374.59;;;14.03;100.00
53960;BME280;39866;48.638;-2.020;2024-03-08T00:31:26;100360.16;;;13.88;100.00
53960;BME280;39866;48.638;-2.020;2024-03-08T00:33:51;100372.72;;;14.05;100.00
53960;BME280;39866;48.638;-2.020;2024-03-08T00:36:17;100362.88;;;14.05;100.00
53960;BME280;39866;48.638;-2.020;2024-03-08T00:38:43;100360.59;;;13.98;100.00
53960;BME280;39866;48.638;-2.020;2024-03-08T00:41:08;100356.44;;;14.09;100.00
53960;BME280;39866;48.638;-2.020;2024-03-08T00:43:33;100360.97;;;14.07;100.00
53960;BME280;39866;48.638;-2.020;2024-03-08T00:45:59;100358.41;;;14.06;100.00
53960;BME280;39866;48.638;-2.020;2024-03-08T00:48:26;100362.94;;;14.04;100.00
53960;BME280;39866;48.638;-2.020;2024-03-08T00:50:52;100347.19;;;13.98;100.00
53960;BME280;39866;48.638;-2.020;2024-03-08T00:53:17;100350.59;;;14.01;100.00
53960;BME280;39866;48.638;-2.020;2024-03-08T00:55:43;100349.72;;;14.01;100.00
53960;BME280;39866;48.638;-2.020;2024-03-08T00:58:11;100342.94;;;13.94;100.00
53960;BME280;39866;48.638;-2.020;2024-03-08T01:00:37;100348.88;;;14.00;100.00
53960;BME280;39866;48.638;-2.020;2024-03-08T01:03:04;100346.03;;;14.03;100.00
53960;BME280;39866;48.638;-2.020;2024-03-08T01:05:30;100347.97;;;14.00;100.00
53960;BME280;39866;48.638;-2.020;2024-03-08T01:07:55;100346.25;;;13.99;100.00
53960;BME280;39866;48.638;-2.020;2024-03-08T01:10:20;100339.03;;;14.01;100.00
53960;BME280;39866;48.638;-2.020;2024-03-08T01:12:46;100340.44;;;14.08;100.00
53960;BME280;39866;48.638;-2.020;2024-03-08T01:15:12;100340.44;;;14.08;100.00
53960;BME280;39866;48.638;-2.020;2024-03-08T01:17:37;100333.81;;;13.98;100.00
53960;BME280;39866;48.638;-2.020;2024-03-08T01:20:04;100325.06;;;13.94;100.00
53960;BME280;39866;48.638;-2.020;2024-03-08T01:22:29;100313.41;;;13.95;100.00
53960;BME280;39866;48.638;-2.020;2024-03-08T01:24:55;100315.19;;;13.77;100.00
53960;BME280;39866;48.638;-2.020;2024-03-08T01:27:21;100314.81;;;13.85;100.00
53960;BME280;39866;48.638;-2.020;2024-03-08T01:29:46;100313.66;;;13.91;100.00
53960;BME280;39866;48.638;-2.020;2024-03-08T01:32:11;100312.78;;;13.90;100.00
53960;BME280;39866;48.638;-2.020;2024-03-08T01:34:37;100296.09;;;13.85;100.00
53960;BME280;39866;48.638;-2.020;2024-03-08T01:37:02;100295.50;;;13.78;100.00
53960;BME280;39866;48.638;-2.020;2024-03-08T01:39:28;100291.25;;;13.74;100.00
53960;BME280;39866;48.638;-2.020;2024-03-08T01:41:53;100283.19;;;13.76;100.00
53960;BME280;39866;48.638;-2.020;2024-03-08T01:44:19;100268.91;;;13.75;100.00
53960;BME280;39866;48.638;-2.020;2024-03-08T01:46:45;100272.25;;;13.80;100.00
53960;BME280;39866;48.638;-2.020;2024-03-08T01:49:12;100272.91;;;13.67;100.00
53960;BME280;39866;48.638;-2.020;2024-03-08T01:51:38;100277.53;;;13.63;100.00
53960;BME280;39866;48.638;-2.020;2024-03-08T01:54:06;100283.53;;;13.68;100.00
53960;BME280;39866;48.638;-2.020;2024-03-08T01:56:31;100282.81;;;13.65;100.00
53960;BME280;39866;48.638;-2.020;2024-03-08T01:58:58;100266.47;;;13.71;100.00
53960;BME280;39866;48.638;-2.020;2024-03-08T02:01:24;100259.16;;;13.74;100.00
53960;BME280;39866;48.638;-2.020;2024-03-08T02:03:50;100249.50;;;13.72;100.00
53960;BME280;39866;48.638;-2.020;2024-03-08T02:06:16;100251.44;;;13.68;100.00
53960;BME280;39866;48.638;-2.020;2024-03-08T02:08:42;100233.72;;;13.66;100.00
53960;BME280;39866;48.638;-2.020;2024-03-08T02:11:11;100232.06;;;13.63;100.00
53960;BME280;39866;48.638;-2.020;2024-03-08T02:13:37;100227.66;;;13.62;100.00
53960;BME280;39866;48.638;-2.020;2024-03-08T02:16:03;100228.38;;;13.66;100.00
53960;BME280;39866;48.638;-2.020;2024-03-08T02:18:30;100227.38;;;13.68;100.00
53960;BME280;39866;48.638;-2.020;2024-03-08T02:20:56;100219.09;;;13.73;100.00
53960;BME280;39866;48.638;-2.020;2024-03-08T02:23:22;100217.59;;;13.67;100.00
53960;BME280;39866;48.638;-2.020;2024-03-08T02:25:48;100210.84;;;13.60;100.00
53960;BME280;39866;48.638;-2.020;2024-03-08T02:28:15;100210.97;;;13.57;100.00
53960;BME280;39866;48.638;-2.020;2024-03-08T02:30:40;100202.94;;;13.57;100.00
53960;BME280;39866;48.638;-2.020;2024-03-08T02:33:06;100187.69;;;13.59;100.00
53960;BME280;39866;48.638;-2.020;2024-03-08T02:35:34;100183.28;;;13.58;100.00
53960;BME280;39866;48.638;-2.020;2024-03-08T02:38:00;100177.44;;;13.50;100.00
53960;BME280;39866;48.638;-2.020;2024-03-08T02:40:26;100173.69;;;13.54;100.00
53960;BME280;39866;48.638;-2.020;2024-03-08T02:42:51;100172.91;;;13.52;100.00
53960;BME280;39866;48.638;-2.020;2024-03-08T02:45:17;100169.66;;;13.45;100.00
53960;BME280;39866;48.638;-2.020;2024-03-08T02:47:42;100163.44;;;13.45;100.00
53960;BME280;39866;48.638;-2.020;2024-03-08T02:50:08;100171.81;;;13.56;100.00
53960;BME280;39866;48.638;-2.020;2024-03-08T02:52:34;100164.06;;;13.50;100.00
53960;BME280;39866;48.638;-2.020;2024-03-08T02:55:00;100163.34;;;13.46;100.00
53960;BME280;39866;48.638;-2.020;2024-03-08T02:57:26;100166.25;;;13.42;100.00
53960;BME280;39866;48.638;-2.020;2024-03-08T02:59:53;100162.88;;;13.38;100.00
53960;BME280;39866;48.638;-2.020;2024-03-08T03:02:18;100161.88;;;13.41;100.00
53960;BME280;39866;48.638;-2.020;2024-03-08T03:04:44;100165.25;;;13.44;100.00
53960;BME280;39866;48.638;-2.020;2024-03-08T03:07:09;100150.47;;;13.37;100.00
53960;BME280;39866;48.638;-2.020;2024-03-08T03:09:34;100152.28;;;13.36;100.00
53960;BME280;39866;48.638;-2.020;2024-03-08T03:12:00;100152.50;;;13.32;100.00
53960;BME280;39866;48.638;-2.020;2024-03-08T03:14:25;100158.84;;;13.29;100.00
53960;BME280;39866;48.638;-2.020;2024-03-08T03:16:53;100158.78;;;13.31;100.00
53960;BME280;39866;48.638;-2.020;2024-03-08T03:19:19;100156.81;;;13.34;100.00
53960;BME280;39866;48.638;-2.020;2024-03-08T03:21:45;100148.97;;;13.31;100.00
53960;BME280;39866;48.638;-2.020;2024-03-08T03:24:11;100142.66;;;13.32;100.00
53960;BME280;39866;48.638;-2.020;2024-03-08T03:26:37;100143.44;;;13.34;100.00
53960;BME280;39866;48.638;-2.020;2024-03-08T03:29:05;100138.91;;;13.36;100.00
53960;BME280;39866;48.638;-2.020;2024-03-08T03:31:31;100135.03;;;13.42;100.00
53960;BME280;39866;48.638;-2.020;2024-03-08T03:33:57;100129.78;;;13.41;100.00
53960;BME280;39866;48.638;-2.020;2024-03-08T03:36:27;100125.75;;;13.32;100.00
53960;BME280;39866;48.638;-2.020;2024-03-08T03:38:53;100127.88;;;13.43;100.00
53960;BME280;39866;48.638;-2.020;2024-03-08T03:41:29;100128.06;;;13.40;100.00
53960;BME280;39866;48.638;-2.020;2024-03-08T03:43:55;100115.94;;;13.32;100.00
53960;BME280;39866;48.638;-2.020;2024-03-08T03:46:20;100104.09;;;13.19;100.00
53960;BME280;39866;48.638;-2.020;2024-03-08T03:48:45;100109.63;;;13.33;100.00
53960;BME280;39866;48.638;-2.020;2024-03-08T03:51:11;100108.91;;;13.30;100.00
53960;BME280;39866;48.638;-2.020;2024-03-08T03:53:37;100110.44;;;13.35;100.00
53960;BME280;39866;48.638;-2.020;2024-03-08T03:56:03;100099.03;;;13.32;100.00
53960;BME280;39866;48.638;-2.020;2024-03-08T03:58:32;100090.28;;;13.28;100.00
53960;BME280;39866;48.638;-2.020;2024-03-08T04:00:57;100100.75;;;13.33;100.00
53960;BME280;39866;48.638;-2.020;2024-03-08T04:03:23;100101.75;;;13.30;100.00
53960;BME280;39866;48.638;-2.020;2024-03-08T04:05:48;100094.69;;;13.29;100.00
53960;BME280;39866;48.638;-2.020;2024-03-08T04:08:13;100091.25;;;13.27;100.00
53960;BME280;39866;48.638;-2.020;2024-03-08T04:10:40;100091.31;;;13.26;100.00
53960;BME280;39866;48.638;-2.020;2024-03-08T04:13:08;100084.09;;;13.28;100.00
53960;BME280;39866;48.638;-2.020;2024-03-08T04:15:34;100076.94;;;13.28;100.00
53960;BME280;39866;48.638;-2.020;2024-03-08T04:18:00;100077.19;;;13.22;100.00
53960;BME280;39866;48.638;-2.020;2024-03-08T04:20:26;100074.59;;;13.21;100.00
53960;BME280;39866;48.638;-2.020;2024-03-08T04:22:51;100073.75;;;13.20;100.00
53960;BME280;39866;48.638;-2.020;2024-03-08T04:25:17;100079.84;;;13.22;100.00
53960;BME280;39866;48.638;-2.020;2024-03-08T04:27:42;100077.88;;;13.27;100.00
53960;BME280;39866;48.638;-2.020;2024-03-08T04:30:08;100082.03;;;13.33;100.00
53960;BME280;39866;48.638;-2.020;2024-03-08T04:32:34;100078.97;;;13.23;100.00
53960;BME280;39866;48.638;-2.020;2024-03-08T04:34:59;100080.69;;;13.24;100.00
53960;BME280;39866;48.638;-2.020;2024-03-08T04:37:27;100071.66;;;13.27;100.00
53960;BME280;39866;48.638;-2.020;2024-03-08T04:39:55;100056.50;;;13.27;100.00
53960;BME280;39866;48.638;-2.020;2024-03-08T04:42:20;100060.03;;;13.28;100.00
53960;BME280;39866;48.638;-2.020;2024-03-08T04:44:45;100054.53;;;13.31;100.00
53960;BME280;39866;48.638;-2.020;2024-03-08T04:47:11;100060.09;;;13.26;100.00
53960;BME280;39866;48.638;-2.020;2024-03-08T04:49:36;100056.56;;;13.26;100.00
53960;BME280;39866;48.638;-2.020;2024-03-08T04:52:05;100056.56;;;13.26;100.00
53960;BME280;39866;48.638;-2.020;2024-03-08T04:54:32;100050.19;;;13.28;100.00
53960;BME280;39866;48.638;-2.020;2024-03-08T04:56:57;100065.53;;;13.25;100.00
53960;BME280;39866;48.638;-2.020;2024-03-08T04:59:22;100055.19;;;13.17;100.00
53960;BME280;39866;48.638;-2.020;2024-03-08T05:01:49;100037.72;;;13.10;100.00
53960;BME280;39866;48.638;-2.020;2024-03-08T05:04:14;100048.63;;;13.05;100.00
53960;BME280;39866;48.638;-2.020;2024-03-08T05:06:40;100039.47;;;13.11;100.00
53960;BME280;39866;48.638;-2.020;2024-03-08T05:09:05;100044.00;;;13.09;100.00
53960;BME280;39866;48.638;-2.020;2024-03-08T05:11:43;100030.50;;;13.12;100.00
53960;BME280;39866;48.638;-2.020;2024-03-08T05:14:10;100022.63;;;13.09;100.00
53960;BME280;39866;48.638;-2.020;2024-03-08T05:16:35;100026.00;;;13.12;100.00
53960;BME280;39866;48.638;-2.020;2024-03-08T05:19:01;100027.03;;;13.10;100.00
53960;BME280;39866;48.638;-2.020;2024-03-08T05:21:27;100011.94;;;13.09;100.00
53960;BME280;39866;48.638;-2.020;2024-03-08T05:23:54;100011.41;;;13.02;100.00
53960;BME280;39866;48.638;-2.020;2024-03-08T05:26:19;100008.94;;;12.98;100.00
53960;BME280;39866;48.638;-2.020;2024-03-08T05:28:44;99999.69;;;13.05;100.00
53960;BME280;39866;48.638;-2.020;2024-03-08T05:31:10;100001.72;;;13.00;100.00
53960;BME280;39866;48.638;-2.020;2024-03-08T05:33:35;100009.13;;;12.95;100.00
53960;BME280;39866;48.638;-2.020;2024-03-08T05:36:00;100004.06;;;13.06;100.00
53960;BME280;39866;48.638;-2.020;2024-03-08T05:38:27;100000.63;;;13.04;100.00
53960;BME280;39866;48.638;-2.020;2024-03-08T05:40:53;99991.91;;;13.00;100.00
53960;BME280;39866;48.638;-2.020;2024-03-08T05:43:19;99980.16;;;12.85;100.00
53960;BME280;39866;48.638;-2.020;2024-03-08T05:45:47;99989.59;;;12.93;100.00
53960;BME280;39866;48.638;-2.020;2024-03-08T05:48:13;99985.59;;;13.01;100.00
53960;BME280;39866;48.638;-2.020;2024-03-08T05:50:39;99992.75;;;13.01;100.00
53960;BME280;39866;48.638;-2.020;2024-03-08T05:53:04;99984.25;;;12.93;100.00
53960;BME280;39866;48.638;-2.020;2024-03-08T05:55:33;99983.16;;;12.97;100.00
53960;BME280;39866;48.638;-2.020;2024-03-08T05:58:01;99989.84;;;13.05;100.00
53960;BME280;39866;48.638;-2.020;2024-03-08T06:00:27;99978.44;;;12.84;100.00
53960;BME280;39866;48.638;-2.020;2024-03-08T06:02:52;99985.50;;;12.85;100.00
53960;BME280;39866;48.638;-2.020;2024-03-08T06:05:18;99988.16;;;12.85;100.00
53960;BME280;39866;48.638;-2.020;2024-03-08T06:07:43;99979.63;;;12.79;100.00
53960;BME280;39866;48.638;-2.020;2024-03-08T06:10:10;99990.66;;;12.90;100.00
53960;BME280;39866;48.638;-2.020;2024-03-08T06:12:36;99988.66;;;12.94;100.00
53960;BME280;39866;48.638;-2.020;2024-03-08T06:15:09;99985.97;;;12.94;100.00
53960;BME280;39866;48.638;-2.020;2024-03-08T06:17:36;99984.13;;;12.96;100.00
53960;BME280;39866;48.638;-2.020;2024-03-08T06:20:02;99992.38;;;12.91;100.00
53960;BME280;39866;48.638;-2.020;2024-03-08T06:22:28;99985.13;;;12.93;100.00
53960;BME280;39866;48.638;-2.020;2024-03-08T06:24:55;99983.63;;;12.87;100.00
53960;BME280;39866;48.638;-2.020;2024-03-08T06:27:21;99983.72;;;12.86;100.00
53960;BME280;39866;48.638;-2.020;2024-03-08T06:29:46;99976.09;;;12.78;100.00
53960;BME280;39866;48.638;-2.020;2024-03-08T06:32:14;99978.06;;;12.92;100.00
53960;BME280;39866;48.638;-2.020;2024-03-08T06:34:40;99977.09;;;12.93;100.00
53960;BME280;39866;48.638;-2.020;2024-03-08T06:37:06;99985.31;;;12.90;100.00
53960;BME280;39866;48.638;-2.020;2024-03-08T06:39:31;99991.16;;;12.79;100.00
53960;BME280;39866;48.638;-2.020;2024-03-08T06:41:57;99991.94;;;12.81;100.00
53960;BME280;39866;48.638;-2.020;2024-03-08T06:44:23;99996.50;;;12.79;100.00
53960;BME280;39866;48.638;-2.020;2024-03-08T06:46:48;99989.81;;;12.71;100.00
53960;BME280;39866;48.638;-2.020;2024-03-08T06:49:15;99996.41;;;12.81;100.00
53960;BME280;39866;48.638;-2.020;2024-03-08T06:51:41;99994.13;;;12.73;100.00
53960;BME280;39866;48.638;-2.020;2024-03-08T06:54:06;99989.97;;;12.68;100.00
53960;BME280;39866;48.638;-2.020;2024-03-08T06:56:36;99982.84;;;12.85;100.00
53960;BME280;39866;48.638;-2.020;2024-03-08T06:59:02;99975.00;;;12.82;100.00
53960;BME280;39866;48.638;-2.020;2024-03-08T07:01:28;99974.28;;;12.79;100.00
53960;BME280;39866;48.638;-2.020;2024-03-08T07:03:57;99972.56;;;12.78;100.00
53960;BME280;39866;48.638;-2.020;2024-03-08T07:06:22;99965.56;;;12.75;100.00
53960;BME280;39866;48.638;-2.020;2024-03-08T07:08:48;99967.03;;;12.81;100.00
53960;BME280;39866;48.638;-2.020;2024-03-08T07:11:14;99966.25;;;12.79;100.00
53960;BME280;39866;48.638;-2.020;2024-03-08T07:13:44;99968.84;;;12.80;100.00
53960;BME280;39866;48.638;-2.020;2024-03-08T07:16:09;99978.59;;;12.81;100.00
53960;BME280;39866;48.638;-2.020;2024-03-08T07:18:37;99970.75;;;12.78;100.00
53960;BME280;39866;48.638;-2.020;2024-03-08T07:21:05;99977.56;;;12.84;100.00
53960;BME280;39866;48.638;-2.020;2024-03-08T07:23:30;99973.72;;;12.72;100.00
53960;BME280;39866;48.638;-2.020;2024-03-08T07:26:17;99981.25;;;12.81;100.00
53960;BME280;39866;48.638;-2.020;2024-03-08T07:28:44;99991.53;;;12.72;100.00
53960;BME280;39866;48.638;-2.020;2024-03-08T07:31:09;99987.09;;;12.89;100.00
53960;BME280;39866;48.638;-2.020;2024-03-08T07:33:43;99982.69;;;12.88;100.00
53960;BME280;39866;48.638;-2.020;2024-03-08T07:36:09;99984.13;;;12.96;100.00
53960;BME280;39866;48.638;-2.020;2024-03-08T07:38:34;99976.88;;;12.98;100.00
53960;BME280;39866;48.638;-2.020;2024-03-08T07:41:00;99972.56;;;12.95;100.00
53960;BME280;39866;48.638;-2.020;2024-03-08T07:43:25;99974.38;;;12.95;100.00
53960;BME280;39866;48.638;-2.020;2024-03-08T07:45:51;99968.09;;;12.96;100.00
53960;BME280;39866;48.638;-2.020;2024-03-08T07:48:18;99973.09;;;13.02;100.00
53960;BME280;39866;48.638;-2.020;2024-03-08T07:50:43;99973.81;;;13.05;100.00
53960;BME280;39866;48.638;-2.020;2024-03-08T07:53:09;99976.00;;;12.80;100.00
53960;BME280;39866;48.638;-2.020;2024-03-08T07:55:35;99971.53;;;12.98;100.00
53960;BME280;39866;48.638;-2.020;2024-03-08T07:58:03;99960.84;;;12.98;100.00
53960;BME280;39866;48.638;-2.020;2024-03-08T08:00:30;99967.47;;;13.08;100.00
53960;BME280;39866;48.638;-2.020;2024-03-08T08:02:56;99960.16;;;13.11;100.00
53960;BME280;39866;48.638;-2.020;2024-03-08T08:05:22;99955.56;;;13.13;100.00
53960;BME280;39866;48.638;-2.020;2024-03-08T08:07:47;99943.31;;;13.09;100.00
53960;BME280;39866;48.638;-2.020;2024-03-08T08:10:13;99941.97;;;13.18;100.00
53960;BME280;39866;48.638;-2.020;2024-03-08T08:12:51;99933.78;;;13.23;100.00
53960;BME280;39866;48.638;-2.020;2024-03-08T08:15:19;99937.34;;;13.22;100.00
53960;BME280;39866;48.638;-2.020;2024-03-08T08:17:45;99939.13;;;13.23;100.00
53960;BME280;39866;48.638;-2.020;2024-03-08T08:20:11;99933.59;;;13.26;100.00
53960;BME280;39866;48.638;-2.020;2024-03-08T08:22:42;99930.06;;;13.25;100.00
53960;BME280;39866;48.638;-2.020;2024-03-08T08:25:10;99922.03;;;13.25;100.00
53960;BME280;39866;48.638;-2.020;2024-03-08T08:27:41;99920.88;;;13.31;100.00
53960;BME280;39866;48.638;-2.020;2024-03-08T08:30:08;99914.03;;;13.25;100.00
53960;BME280;39866;48.638;-2.020;2024-03-08T08:32:34;99914.63;;;13.30;100.00
53960;BME280;39866;48.638;-2.020;2024-03-08T08:35:01;99916.69;;;13.25;100.00
53960;BME280;39866;48.638;-2.020;2024-03-08T08:37:27;99926.75;;;13.20;100.00
53960;BME280;39866;48.638;-2.020;2024-03-08T08:39:53;99926.13;;;13.32;100.00
53960;BME280;39866;48.638;-2.020;2024-03-08T08:42:19;99918.00;;;13.34;100.00
53960;BME280;39866;48.638;-2.020;2024-03-08T08:44:44;99917.84;;;13.37;100.00
53960;BME280;39866;48.638;-2.020;2024-03-08T08:47:09;99907.00;;;13.40;100.00
53960;BME280;39866;48.638;-2.020;2024-03-08T08:49:35;99909.84;;;13.37;100.00
53960;BME280;39866;48.638;-2.020;2024-03-08T08:52:01;99909.75;;;13.38;100.00
53960;BME280;39866;48.638;-2.020;2024-03-08T08:54:26;99905.34;;;13.37;100.00
53960;BME280;39866;48.638;-2.020;2024-03-08T08:56:52;99897.06;;;13.42;100.00
53960;BME280;39866;48.638;-2.020;2024-03-08T08:59:18;99889.06;;;13.42;100.00
53960;BME280;39866;48.638;-2.020;2024-03-08T09:01:48;99888.81;;;13.47;100.00
53960;BME280;39866;48.638;-2.020;2024-03-08T09:04:13;99884.88;;;13.54;100.00
53960;BME280;39866;48.638;-2.020;2024-03-08T09:06:39;99883.84;;;13.56;100.00
53960;BME280;39866;48.638;-2.020;2024-03-08T09:09:06;99871.50;;;13.54;100.00
53960;BME280;39866;48.638;-2.020;2024-03-08T09:11:34;99863.22;;;13.58;100.00
53960;BME280;39866;48.638;-2.020;2024-03-08T09:13:59;99870.97;;;13.63;100.00
53960;BME280;39866;48.638;-2.020;2024-03-08T09:16:25;99865.97;;;13.57;100.00
53960;BME280;39866;48.638;-2.020;2024-03-08T09:18:51;99855.28;;;13.57;100.00
53960;BME280;39866;48.638;-2.020;2024-03-08T09:21:17;99856.50;;;13.67;100.00
53960;BME280;39866;48.638;-2.020;2024-03-08T09:23:42;99867.88;;;13.71;100.00
53960;BME280;39866;48.638;-2.020;2024-03-08T09:26:10;99868.41;;;13.77;100.00
53960;BME280;39866;48.638;-2.020;2024-03-08T09:28:37;99871.94;;;13.78;100.00
53960;BME280;39866;48.638;-2.020;2024-03-08T09:31:03;99868.59;;;13.74;100.00
53960;BME280;39866;48.638;-2.020;2024-03-08T09:33:30;99862.13;;;13.78;100.00
53960;BME280;39866;48.638;-2.020;2024-03-08T09:35:56;99864.25;;;13.87;100.00
53960;BME280;39866;48.638;-2.020;2024-03-08T09:38:23;99857.72;;;13.93;100.00
53960;BME280;39866;48.638;-2.020;2024-03-08T09:40:50;99859.97;;;14.01;100.00
53960;BME280;39866;48.638;-2.020;2024-03-08T09:43:15;99858.59;;;14.09;100.00
53960;BME280;39866;48.638;-2.020;2024-03-08T09:45:42;99855.53;;;14.00;100.00
53960;BME280;39866;48.638;-2.020;2024-03-08T09:48:11;99842.34;;;14.12;100.00
53960;BME280;39866;48.638;-2.020;2024-03-08T09:50:41;99844.13;;;14.12;100.00
53960;BME280;39866;48.638;-2.020;2024-03-08T09:53:07;99835.53;;;14.07;100.00
53960;BME280;39866;48.638;-2.020;2024-03-08T09:55:36;99834.38;;;14.27;100.00
53960;BME280;39866;48.638;-2.020;2024-03-08T09:58:05;99823.22;;;14.34;100.00
53960;BME280;39866;48.638;-2.020;2024-03-08T10:00:50;99826.31;;;14.43;100.00
53960;BME280;39866;48.638;-2.020;2024-03-08T10:03:15;99817.31;;;14.44;100.00
53960;BME280;39866;48.638;-2.020;2024-03-08T10:05:41;99806.59;;;14.44;100.00
53960;BME280;39866;48.638;-2.020;2024-03-08T10:08:07;99803.34;;;14.38;100.00
53960;BME280;39866;48.638;-2.020;2024-03-08T10:10:39;99803.41;;;14.53;100.00
53960;BME280;39866;48.638;-2.020;2024-03-08T10:13:09;99805.72;;;14.59;100.00
53960;BME280;39866;48.638;-2.020;2024-03-08T10:15:35;99799.00;;;14.52;100.00
53960;BME280;39866;48.638;-2.020;2024-03-08T10:18:00;99793.66;;;14.52;100.00
53960;BME280;39866;48.638;-2.020;2024-03-08T10:20:30;99798.41;;;14.47;100.00
53960;BME280;39866;48.638;-2.020;2024-03-08T10:23:00;99794.44;;;14.54;100.00
53960;BME280;39866;48.638;-2.020;2024-03-08T10:25:26;99789.47;;;14.62;100.00
53960;BME280;39866;48.638;-2.020;2024-03-08T10:27:51;99789.88;;;14.70;100.00
53960;BME280;39866;48.638;-2.020;2024-03-08T10:30:17;99769.72;;;14.49;100.00
53960;BME280;39866;48.638;-2.020;2024-03-08T10:32:47;99767.97;;;14.78;100.00
53960;BME280;39866;48.638;-2.020;2024-03-08T10:35:13;99770.84;;;14.89;100.00
53960;BME280;39866;48.638;-2.020;2024-03-08T10:37:46;99774.31;;;14.91;100.00
53960;BME280;39866;48.638;-2.020;2024-03-08T10:40:19;99770.16;;;14.85;100.00
53960;BME280;39866;48.638;-2.020;2024-03-08T10:42:59;99769.59;;;14.80;100.00
53960;BME280;39866;48.638;-2.020;2024-03-08T10:48:28;99776.41;;;15.15;100.00
53960;BME280;39866;48.638;-2.020;2024-03-08T10:50:59;99770.56;;;15.08;100.00
53960;BME280;39866;48.638;-2.020;2024-03-08T10:53:27;99772.69;;;15.03;100.00
53960;BME280;39866;48.638;-2.020;2024-03-08T10:55:56;99770.66;;;15.21;100.00
53960;BME280;39866;48.638;-2.020;2024-03-08T10:58:24;99775.66;;;15.27;100.00
53960;BME280;39866;48.638;-2.020;2024-03-08T11:00:53;99774.56;;;15.29;100.00
53960;BME280;39866;48.638;-2.020;2024-03-08T11:06:07;99755.88;;;15.42;100.00
53960;BME280;39866;48.638;-2.020;2024-03-08T11:08:36;99761.91;;;15.46;100.00
53960;BME280;39866;48.638;-2.020;2024-03-08T11:11:01;99755.78;;;15.44;100.00
53960;BME280;39866;48.638;-2.020;2024-03-08T11:13:37;99755.69;;;15.45;100.00
53960;BME280;39866;48.638;-2.020;2024-03-08T11:16:07;99746.41;;;15.36;100.00
53960;BME280;39866;48.638;-2.020;2024-03-08T11:18:35;99740.75;;;15.41;100.00
53960;BME280;39866;48.638;-2.020;2024-03-08T11:21:05;99727.59;;;15.65;100.00
53960;BME280;39866;48.638;-2.020;2024-03-08T11:23:37;99729.59;;;15.76;100.00
53960;BME280;39866;48.638;-2.020;2024-03-08T11:26:03;99724.31;;;15.60;100.00
53960;BME280;39866;48.638;-2.020;2024-03-08T11:28:32;99716.41;;;15.85;99.76
53960;BME280;39866;48.638;-2.020;2024-03-08T11:33:28;99718.47;;;15.95;100.00
53960;BME280;39866;48.638;-2.020;2024-03-08T11:36:13;99714.47;;;15.88;100.00
53960;BME280;39866;48.638;-2.020;2024-03-08T11:38:45;99709.88;;;15.90;100.00
53960;BME280;39866;48.638;-2.020;2024-03-08T11:41:20;99712.00;;;15.84;100.00
53960;BME280;39866;48.638;-2.020;2024-03-08T11:43:46;99694.84;;;16.00;100.00
53960;BME280;39866;48.638;-2.020;2024-03-08T11:46:13;99697.19;;;15.92;100.00
53960;BME280;39866;48.638;-2.020;2024-03-08T11:48:39;99705.13;;;15.80;100.00
53960;BME280;39866;48.638;-2.020;2024-03-08T11:51:07;99703.44;;;15.92;100.00
53960;BME280;39866;48.638;-2.020;2024-03-08T11:53:33;99703.13;;;15.97;100.00
53960;BME280;39866;48.638;-2.020;2024-03-08T11:56:11;99696.81;;;16.10;100.00
53960;BME280;39866;48.638;-2.020;2024-03-08T11:58:38;99707.72;;;15.95;100.00
53960;BME280;39866;48.638;-2.020;2024-03-08T12:01:10;99699.97;;;16.17;99.88
53960;BME280;39866;48.638;-2.020;2024-03-08T12:03:39;99690.91;;;16.05;100.00
53960;BME280;39866;48.638;-2.020;2024-03-08T12:06:07;99686.72;;;16.14;98.08
53960;BME280;39866;48.638;-2.020;2024-03-08T12:08:35;99676.00;;;16.40;96.67
53960;BME280;39866;48.638;-2.020;2024-03-08T12:11:01;99677.31;;;16.47;96.82
53960;BME280;39866;48.638;-2.020;2024-03-08T12:13:31;99667.41;;;16.34;98.57
53960;BME280;39866;48.638;-2.020;2024-03-08T12:15:57;99662.00;;;15.96;100.00
53960;BME280;39866;48.638;-2.020;2024-03-08T12:18:25;99661.66;;;15.88;99.67
53960;BME280;39866;48.638;-2.020;2024-03-08T12:20:51;99671.06;;;16.33;98.24
53960;BME280;39866;48.638;-2.020;2024-03-08T12:23:17;99667.41;;;16.34;98.60
53960;BME280;39866;48.638;-2.020;2024-03-08T12:25:42;99664.78;;;15.95;100.00
53960;BME280;39866;48.638;-2.020;2024-03-08T12:28:12;99658.44;;;15.96;100.00
53960;BME280;39866;48.638;-2.020;2024-03-08T12:30:51;99664.78;;;15.95;100.00
53960;BME280;39866;48.638;-2.020;2024-03-08T12:33:21;99657.66;;;16.33;98.87
53960;BME280;39866;48.638;-2.020;2024-03-08T12:35:54;99649.78;;;16.43;98.53
53960;BME280;39866;48.638;-2.020;2024-03-08T12:38:21;99657.13;;;16.54;98.11
53960;BME280;39866;48.638;-2.020;2024-03-08T12:40:58;99655.47;;;16.64;97.49
53960;BME280;39866;48.638;-2.020;2024-03-08T12:43:23;99650.88;;;16.66;97.72